sensor_id;sensor_type;location;lat;lon;timestamp;pressure;altitude;pressure_sealevel;temperature;humidity
23318;BME280;11831;55.918;37.746;2023-03-01T00:01:50;98460.94;;;-4.55;0.00
23318;BME280;11831;55.918;37.746;2023-03-01T00:04:17;98444.72;;;-4.67;0.00
23318;BME280;11831;55.918;37.746;2023-03-01T00:06:43;98449.91;;;-4.75;0.00
23318;BME280;11831;55.918;37.746;2023-03-01T00:09:13;98463.66;;;-4.65;0.00
23318;BME280;11831;55.918;37.746;2023-03-01T00:11:40;98442.31;;;-4.60;0.00
23318;BME280;11831;55.918;37.746;2023-03-01T00:14:06;98446.31;;;-4.74;0.00
23318;BME280;11831;55.918;37.746;2023-03-01T00:16:40;98434.59;;;-4.70;0.00
23318;BME280;11831;55.918;37.746;2023-03-01T00:19:11;98448.53;;;-4.87;0.00
23318;BME280;11831;55.918;37.746;2023-03-01T00:21:37;98434.44;;;-4.69;0.00
23318;BME280;11831;55.918;37.746;2023-03-01T00:24:04;98435.19;;;-4.58;0.00
23318;BME280;11831;55.918;37.746;2023-03-01T00:26:31;98434.69;;;-4.54;0.00
23318;BME280;11831;55.918;37.746;2023-03-01T00:28:58;98451.75;;;-4.93;0.00
23318;BME280;11831;55.918;37.746;2023-03-01T00:31:27;98437.03;;;-4.77;0.00
23318;BME280;11831;55.918;37.746;2023-03-01T00:33:57;98441.06;;;-4.82;0.00
23318;BME280;11831;55.918;37.746;2023-03-01T00:36:26;98446.00;;;-4.71;0.00
23318;BME280;11831;55.918;37.746;2023-03-01T00:38:53;98442.66;;;-4.89;0.00
23318;BME280;11831;55.918;37.746;2023-03-01T00:41:20;98440.78;;;-4.71;0.00
23318;BME280;11831;55.918;37.746;2023-03-01T00:43:49;98445.13;;;-4.88;0.00
23318;BME280;11831;55.918;37.746;2023-03-01T00:46:18;98437.63;;;-4.57;0.00
23318;BME280;11831;55.918;37.746;2023-03-01T00:48:45;98428.88;;;-4.74;0.00
23318;BME280;11831;55.918;37.746;2023-03-01T00:51:24;98468.41;;;-5.12;0.00
23318;BME280;11831;55.918;37.746;2023-03-01T00:53:54;98446.69;;;-4.95;0.00
23318;BME280;11831;55.918;37.746;2023-03-01T00:56:20;98432.09;;;-4.54;0.00
23318;BME280;11831;55.918;37.746;2023-03-01T00:58:47;98441.00;;;-4.64;0.00
23318;BME280;11831;55.918;37.746;2023-03-01T01:01:16;98449.56;;;-4.46;0.00
23318;BME280;11831;55.918;37.746;2023-03-01T01:03:47;98448.69;;;-4.89;0.00
23318;BME280;11831;55.918;37.746;2023-03-01T01:06:16;98430.72;;;-4.66;0.00
23318;BME280;11831;55.918;37.746;2023-03-01T01:08:42;98417.47;;;-4.30;0.00
23318;BME280;11831;55.918;37.746;2023-03-01T01:11:10;98434.88;;;-4.47;0.00
23318;BME280;11831;55.918;37.746;2023-03-01T01:13:37;98432.13;;;-4.46;0.00
23318;BME280;11831;55.918;37.746;2023-03-01T01:16:05;98433.94;;;-4.72;0.00
23318;BME280;11831;55.918;37.746;2023-03-01T01:18:31;98416.59;;;-4.55;0.00
23318;BME280;11831;55.918;37.746;2023-03-01T01:20:57;98437.38;;;-4.72;0.00
23318;BME280;11831;55.918;37.746;2023-03-01T01:23:24;98417.41;;;-4.55;0.00
23318;BME280;11831;55.918;37.746;2023-03-01T01:25:50;98435.31;;;-4.26;0.00
23318;BME280;11831;55.918;37.746;2023-03-01T01:28:16;98429.41;;;-4.62;0.00
23318;BME280;11831;55.918;37.746;2023-03-01T01:30:43;98427.25;;;-4.41;0.00
23318;BME280;11831;55.918;37.746;2023-03-01T01:33:09;98424.72;;;-4.16;0.00
23318;BME280;11831;55.918;37.746;2023-03-01T01:35:35;98443.31;;;-4.11;0.00
23318;BME280;11831;55.918;37.746;2023-03-01T01:38:01;98446.41;;;-4.16;0.00
23318;BME280;11831;55.918;37.746;2023-03-01T01:40:27;98457.06;;;-4.51;0.00
23318;BME280;11831;55.918;37.746;2023-03-01T01:42:54;98436.56;;;-4.30;0.00
23318;BME280;11831;55.918;37.746;2023-03-01T01:45:33;98424.28;;;-4.46;0.00
23318;BME280;11831;55.918;37.746;2023-03-01T01:48:06;98452.66;;;-4.51;0.00
23318;BME280;11831;55.918;37.746;2023-03-01T01:50:39;98446.56;;;-4.59;0.00
23318;BME280;11831;55.918;37.746;2023-03-01T01:53:17;98431.97;;;-4.36;0.00
23318;BME280;11831;55.918;37.746;2023-03-01T01:55:49;98481.31;;;-4.59;0.00
23318;BME280;11831;55.918;37.746;2023-03-01T01:58:19;98444.56;;;-4.31;0.00
23318;BME280;11831;55.918;37.746;2023-03-01T02:00:47;98461.69;;;-4.63;0.00
23318;BME280;11831;55.918;37.746;2023-03-01T02:03:23;98457.09;;;-4.35;0.00
23318;BME280;11831;55.918;37.746;2023-03-01T02:06:17;98458.59;;;-4.66;0.00
23318;BME280;11831;55.918;37.746;2023-03-01T02:08:40;98444.88;;;-4.34;0.00
23318;BME280;11831;55.918;37.746;2023-03-01T02:11:08;98462.00;;;-4.32;0.00
23318;BME280;11831;55.918;37.746;2023-03-01T02:13:36;98469.81;;;-4.40;0.00
23318;BME280;11831;55.918;37.746;2023-03-01T02:16:11;98447.09;;;-4.06;0.00
23318;BME280;11831;55.918;37.746;2023-03-01T02:18:40;98444.06;;;-4.69;0.00
23318;BME280;11831;55.918;37.746;2023-03-01T02:21:21;98448.00;;;-4.65;0.00
23318;BME280;11831;55.918;37.746;2023-03-01T02:23:50;98437.38;;;-4.72;0.00
23318;BME280;11831;55.918;37.746;2023-03-01T02:28:45;98446.66;;;-4.35;0.00
23318;BME280;11831;55.918;37.746;2023-03-01T02:31:16;98453.66;;;-4.44;0.00
23318;BME280;11831;55.918;37.746;2023-03-01T02:34:02;98460.34;;;-5.01;0.00
23318;BME280;11831;55.918;37.746;2023-03-01T02:36:35;98437.22;;;-4.70;0.00
23318;BME280;11831;55.918;37.746;2023-03-01T02:39:04;98447.84;;;-4.63;0.00
23318;BME280;11831;55.918;37.746;2023-03-01T02:41:35;98450.19;;;-4.86;0.00
23318;BME280;11831;55.918;37.746;2023-03-01T02:44:04;98443.44;;;-4.63;0.00
23318;BME280;11831;55.918;37.746;2023-03-01T02:46:30;98457.69;;;-5.09;0.00
23318;BME280;11831;55.918;37.746;2023-03-01T02:48:58;98447.97;;;-4.99;0.00
23318;BME280;11831;55.918;37.746;2023-03-01T02:54:27;98481.41;;;-5.20;0.00
23318;BME280;11831;55.918;37.746;2023-03-01T02:56:55;98454.72;;;-4.88;0.00
23318;BME280;11831;55.918;37.746;2023-03-01T02:59:25;98461.94;;;-5.08;0.00
23318;BME280;11831;55.918;37.746;2023-03-01T03:01:53;98454.44;;;-4.85;0.00
23318;BME280;11831;55.918;37.746;2023-03-01T03:04:19;98459.84;;;-5.05;0.00
23318;BME280;11831;55.918;37.746;2023-03-01T03:06:49;98487.34;;;-4.84;0.00
23318;BME280;11831;55.918;37.746;2023-03-01T03:09:16;98455.75;;;-4.81;0.00
23318;BME280;11831;55.918;37.746;2023-03-01T03:11:43;98457.12;;;-4.95;0.00
23318;BME280;11831;55.918;37.746;2023-03-01T03:14:14;98459.22;;;-4.73;0.00
23318;BME280;11831;55.918;37.746;2023-03-01T03:16:42;98468.63;;;-4.80;0.00
23318;BME280;11831;55.918;37.746;2023-03-01T03:19:09;98463.00;;;-4.93;0.00
23318;BME280;11831;55.918;37.746;2023-03-01T03:21:36;98456.22;;;-4.52;0.00
23318;BME280;11831;55.918;37.746;2023-03-01T03:24:03;98480.03;;;-5.07;0.00
23318;BME280;11831;55.918;37.746;2023-03-01T03:26:31;98457.41;;;-4.72;0.00
23318;BME280;11831;55.918;37.746;2023-03-01T03:28:57;98458.31;;;-4.89;0.00
23318;BME280;11831;55.918;37.746;2023-03-01T03:31:24;98461.19;;;-4.92;0.00
23318;BME280;11831;55.918;37.746;2023-03-01T03:33:50;98450.34;;;-4.88;0.00
23318;BME280;11831;55.918;37.746;2023-03-01T03:36:18;98477.44;;;-4.81;0.00
23318;BME280;11831;55.918;37.746;2023-03-01T03:38:46;98475.78;;;-5.08;0.00
23318;BME280;11831;55.918;37.746;2023-03-01T03:41:13;98478.09;;;-5.05;0.00
23318;BME280;11831;55.918;37.746;2023-03-01T03:43:40;98468.50;;;-5.22;0.00
23318;BME280;11831;55.918;37.746;2023-03-01T03:46:10;98477.31;;;-5.58;0.00
23318;BME280;11831;55.918;37.746;2023-03-01T03:48:44;98473.22;;;-5.43;0.00
23318;BME280;11831;55.918;37.746;2023-03-01T03:51:13;98477.69;;;-5.36;0.00
23318;BME280;11831;55.918;37.746;2023-03-01T03:53:40;98472.00;;;-5.31;0.00
23318;BME280;11831;55.918;37.746;2023-03-01T03:56:07;98468.41;;;-5.12;0.00
23318;BME280;11831;55.918;37.746;2023-03-01T03:58:34;98466.22;;;-5.43;0.00
23318;BME280;11831;55.918;37.746;2023-03-01T04:01:00;98468.87;;;-4.91;0.00
23318;BME280;11831;55.918;37.746;2023-03-01T04:03:30;98464.84;;;-5.29;0.00
23318;BME280;11831;55.918;37.746;2023-03-01T04:05:58;98465.97;;;-5.14;0.00
23318;BME280;11831;55.918;37.746;2023-03-01T04:08:26;98475.22;;;-5.37;0.00
23318;BME280;11831;55.918;37.746;2023-03-01T04:10:57;98467.88;;;-5.42;0.00
23318;BME280;11831;55.918;37.746;2023-03-01T04:13:24;98478.28;;;-5.42;0.00
23318;BME280;11831;55.918;37.746;2023-03-01T04:15:52;98467.19;;;-5.44;0.00
23318;BME280;11831;55.918;37.746;2023-03-01T04:18:21;98496.62;;;-5.08;0.00
23318;BME280;11831;55.918;37.746;2023-03-01T04:20:48;98487.06;;;-5.78;0.00
23318;BME280;11831;55.918;37.746;2023-03-01T04:23:17;98491.97;;;-5.75;0.00
23318;BME280;11831;55.918;37.746;2023-03-01T04:25:47;98474.13;;;-5.70;0.00
23318;BME280;11831;55.918;37.746;2023-03-01T04:28:24;98474.91;;;-5.34;0.00
23318;BME280;11831;55.918;37.746;2023-03-01T04:30:55;98487.44;;;-5.91;0.00
23318;BME280;11831;55.918;37.746;2023-03-01T04:33:23;98480.22;;;-5.62;0.00
23318;BME280;11831;55.918;37.746;2023-03-01T04:35:49;98487.72;;;-5.58;0.00
23318;BME280;11831;55.918;37.746;2023-03-01T04:38:17;98498.81;;;-5.92;0.00
23318;BME280;11831;55.918;37.746;2023-03-01T04:40:43;98477.69;;;-5.53;0.00
23318;BME280;11831;55.918;37.746;2023-03-01T04:43:11;98494.06;;;-5.61;0.00
23318;BME280;11831;55.918;37.746;2023-03-01T04:45:39;98490.88;;;-5.73;0.00
23318;BME280;11831;55.918;37.746;2023-03-01T04:48:06;98489.53;;;-5.77;0.00
23318;BME280;11831;55.918;37.746;2023-03-01T04:50:32;98486.31;;;-5.53;0.00
23318;BME280;11831;55.918;37.746;2023-03-01T04:52:59;98493.00;;;-5.68;0.00
23318;BME280;11831;55.918;37.746;2023-03-01T04:55:26;98480.38;;;-5.63;0.00
23318;BME280;11831;55.918;37.746;2023-03-01T04:57:54;98485.28;;;-5.96;0.00
23318;BME280;11831;55.918;37.746;2023-03-01T05:00:22;98488.09;;;-6.07;0.00
23318;BME280;11831;55.918;37.746;2023-03-01T05:05:24;98507.97;;;-6.15;0.00
23318;BME280;11831;55.918;37.746;2023-03-01T05:07:53;98499.78;;;-5.75;0.00
23318;BME280;11831;55.918;37.746;2023-03-01T05:10:20;98499.50;;;-6.17;0.00
23318;BME280;11831;55.918;37.746;2023-03-01T05:12:46;98514.78;;;-6.05;0.00
23318;BME280;11831;55.918;37.746;2023-03-01T05:15:12;98513.25;;;-5.62;0.00
23318;BME280;11831;55.918;37.746;2023-03-01T05:17:39;98509.69;;;-5.25;0.00
23318;BME280;11831;55.918;37.746;2023-03-01T05:20:05;98505.44;;;-5.09;0.00
23318;BME280;11831;55.918;37.746;2023-03-01T05:22:35;98519.44;;;-5.10;0.00
23318;BME280;11831;55.918;37.746;2023-03-01T05:25:02;98513.31;;;-5.01;0.00
23318;BME280;11831;55.918;37.746;2023-03-01T05:27:29;98518.59;;;-5.10;0.00
23318;BME280;11831;55.918;37.746;2023-03-01T05:29:56;98517.41;;;-4.72;0.00
23318;BME280;11831;55.918;37.746;2023-03-01T05:32:22;98513.28;;;-4.83;0.00
23318;BME280;11831;55.918;37.746;2023-03-01T05:34:49;98521.66;;;-4.71;0.00
23318;BME280;11831;55.918;37.746;2023-03-01T05:37:16;98520.88;;;-4.63;0.00
23318;BME280;11831;55.918;37.746;2023-03-01T05:39:42;98524.56;;;-4.48;0.00
23318;BME280;11831;55.918;37.746;2023-03-01T05:42:09;98535.94;;;-4.57;0.00
23318;BME280;11831;55.918;37.746;2023-03-01T05:44:36;98539.09;;;-4.46;0.00
23318;BME280;11831;55.918;37.746;2023-03-01T05:47:03;98537.78;;;-4.93;0.00
23318;BME280;11831;55.918;37.746;2023-03-01T05:49:31;98531.22;;;-4.28;0.00
23318;BME280;11831;55.918;37.746;2023-03-01T05:51:57;98543.63;;;-4.56;0.00
23318;BME280;11831;55.918;37.746;2023-03-01T05:54:23;98551.38;;;-4.38;0.00
23318;BME280;11831;55.918;37.746;2023-03-01T05:56:50;98528.78;;;-4.55;0.00
23318;BME280;11831;55.918;37.746;2023-03-01T05:59:16;98551.56;;;-4.31;0.00
23318;BME280;11831;55.918;37.746;2023-03-01T06:01:42;98554.63;;;-4.10;0.00
23318;BME280;11831;55.918;37.746;2023-03-01T06:04:09;98559.50;;;-4.67;0.00
23318;BME280;11831;55.918;37.746;2023-03-01T06:06:36;98558.53;;;-4.14;0.00
23318;BME280;11831;55.918;37.746;2023-03-01T06:09:06;98549.84;;;-4.92;0.00
23318;BME280;11831;55.918;37.746;2023-03-01T06:11:34;98557.72;;;-4.41;0.00
23318;BME280;11831;55.918;37.746;2023-03-01T06:14:01;98562.38;;;-4.26;0.00
23318;BME280;11831;55.918;37.746;2023-03-01T06:16:27;98547.72;;;-4.19;0.00
23318;BME280;11831;55.918;37.746;2023-03-01T06:18:53;98552.37;;;-3.55;0.00
23318;BME280;11831;55.918;37.746;2023-03-01T06:21:19;98556.03;;;-3.82;0.00
23318;BME280;11831;55.918;37.746;2023-03-01T06:23:46;98560.56;;;-3.41;0.00
23318;BME280;11831;55.918;37.746;2023-03-01T06:26:12;98559.41;;;-3.55;0.00
23318;BME280;11831;55.918;37.746;2023-03-01T06:28:38;98554.34;;;-3.49;0.00
23318;BME280;11831;55.918;37.746;2023-03-01T06:31:04;98551.38;;;-3.62;0.00
23318;BME280;11831;55.918;37.746;2023-03-01T06:33:34;98548.13;;;-3.56;0.00
23318;BME280;11831;55.918;37.746;2023-03-01T06:36:03;98551.16;;;-3.02;0.00
23318;BME280;11831;55.918;37.746;2023-03-01T06:38:30;98560.94;;;-3.12;0.00
23318;BME280;11831;55.918;37.746;2023-03-01T06:40:56;98574.59;;;-3.42;0.00
23318;BME280;11831;55.918;37.746;2023-03-01T06:43:23;98562.56;;;-3.35;0.00
23318;BME280;11831;55.918;37.746;2023-03-01T06:45:49;98567.06;;;-3.62;0.00
23318;BME280;11831;55.918;37.746;2023-03-01T06:48:16;98566.34;;;-3.05;0.00
23318;BME280;11831;55.918;37.746;2023-03-01T06:50:43;98559.81;;;-2.93;0.00
23318;BME280;11831;55.918;37.746;2023-03-01T06:53:09;98565.53;;;-2.73;0.00
23318;BME280;11831;55.918;37.746;2023-03-01T06:55:36;98576.31;;;-2.93;0.00
23318;BME280;11831;55.918;37.746;2023-03-01T06:58:03;98582.16;;;-2.26;0.00
23318;BME280;11831;55.918;37.746;2023-03-01T07:00:30;98583.69;;;-2.96;0.00
23318;BME280;11831;55.918;37.746;2023-03-01T07:03:00;98574.69;;;-2.77;0.00
23318;BME280;11831;55.918;37.746;2023-03-01T07:05:29;98590.37;;;-2.77;0.00
23318;BME280;11831;55.918;37.746;2023-03-01T07:07:55;98576.00;;;-2.65;0.00
23318;BME280;11831;55.918;37.746;2023-03-01T07:10:22;98597.59;;;-2.71;0.00
23318;BME280;11831;55.918;37.746;2023-03-01T07:12:49;98597.25;;;-2.76;0.00
23318;BME280;11831;55.918;37.746;2023-03-01T07:15:15;98586.66;;;-1.95;0.00
23318;BME280;11831;55.918;37.746;2023-03-01T07:17:41;98595.91;;;-2.32;0.00
23318;BME280;11831;55.918;37.746;2023-03-01T07:20:11;98591.19;;;-2.85;0.00
23318;BME280;11831;55.918;37.746;2023-03-01T07:22:39;98601.78;;;-2.22;0.00
23318;BME280;11831;55.918;37.746;2023-03-01T07:25:07;98615.03;;;-2.07;0.00
23318;BME280;11831;55.918;37.746;2023-03-01T07:27:34;98612.94;;;-2.52;0.00
23318;BME280;11831;55.918;37.746;2023-03-01T07:30:00;98602.31;;;-2.51;0.00
23318;BME280;11831;55.918;37.746;2023-03-01T07:32:28;98619.47;;;-2.24;0.00
23318;BME280;11831;55.918;37.746;2023-03-01T07:34:54;98632.50;;;-1.91;0.00
23318;BME280;11831;55.918;37.746;2023-03-01T07:37:20;98612.38;;;-1.51;0.00
23318;BME280;11831;55.918;37.746;2023-03-01T07:39:47;98628.06;;;-1.82;0.00
23318;BME280;11831;55.918;37.746;2023-03-01T07:42:14;98614.37;;;-2.09;0.00
23318;BME280;11831;55.918;37.746;2023-03-01T07:44:40;98620.78;;;-1.64;0.00
23318;BME280;11831;55.918;37.746;2023-03-01T07:47:06;98603.78;;;-1.37;0.00
23318;BME280;11831;55.918;37.746;2023-03-01T07:49:33;98617.66;;;-2.07;0.00
23318;BME280;11831;55.918;37.746;2023-03-01T07:51:59;98629.19;;;-1.85;0.00
23318;BME280;11831;55.918;37.746;2023-03-01T07:54:26;98630.63;;;-2.38;0.00
23318;BME280;11831;55.918;37.746;2023-03-01T07:56:52;98628.09;;;-1.12;0.00
23318;BME280;11831;55.918;37.746;2023-03-01T07:59:20;98624.81;;;-1.14;0.00
23318;BME280;11831;55.918;37.746;2023-03-01T08:01:47;98634.47;;;-1.46;0.00
23318;BME280;11831;55.918;37.746;2023-03-01T08:04:13;98611.41;;;-1.19;0.00
23318;BME280;11831;55.918;37.746;2023-03-01T08:06:39;98615.41;;;-0.40;0.00
23318;BME280;11831;55.918;37.746;2023-03-01T08:09:06;98618.47;;;-0.97;0.00
23318;BME280;11831;55.918;37.746;2023-03-01T08:11:33;98609.91;;;-0.91;0.00
23318;BME280;11831;55.918;37.746;2023-03-01T08:14:00;98625.78;;;-0.84;0.00
23318;BME280;11831;55.918;37.746;2023-03-01T08:16:26;98626.34;;;-1.28;0.00
23318;BME280;11831;55.918;37.746;2023-03-01T08:18:53;98622.63;;;-0.80;0.00
23318;BME280;11831;55.918;37.746;2023-03-01T08:21:22;98629.09;;;-0.68;0.00
23318;BME280;11831;55.918;37.746;2023-03-01T08:23:48;98631.84;;;-0.61;0.00
23318;BME280;11831;55.918;37.746;2023-03-01T08:26:19;98642.22;;;-0.68;0.00
23318;BME280;11831;55.918;37.746;2023-03-01T08:28:48;98637.66;;;-0.13;0.00
23318;BME280;11831;55.918;37.746;2023-03-01T08:31:20;98635.16;;;-0.90;0.00
23318;BME280;11831;55.918;37.746;2023-03-01T08:33:49;98627.63;;;-0.93;0.00
23318;BME280;11831;55.918;37.746;2023-03-01T08:36:24;98651.41;;;-0.95;0.00
23318;BME280;11831;55.918;37.746;2023-03-01T08:38:52;98670.75;;;-1.18;0.00
23318;BME280;11831;55.918;37.746;2023-03-01T08:41:19;98646.78;;;-0.84;0.00
23318;BME280;11831;55.918;37.746;2023-03-01T08:43:45;98635.25;;;-1.37;0.00
23318;BME280;11831;55.918;37.746;2023-03-01T08:46:12;98640.66;;;-1.39;0.00
23318;BME280;11831;55.918;37.746;2023-03-01T08:48:39;98641.41;;;-1.22;0.00
23318;BME280;11831;55.918;37.746;2023-03-01T08:51:14;98658.84;;;-0.75;0.00
23318;BME280;11831;55.918;37.746;2023-03-01T08:53:41;98637.09;;;-0.84;0.00
23318;BME280;11831;55.918;37.746;2023-03-01T08:56:08;98646.34;;;-0.27;0.00
23318;BME280;11831;55.918;37.746;2023-03-01T08:58:35;98658.25;;;-0.85;0.00
23318;BME280;11831;55.918;37.746;2023-03-01T09:01:10;98671.19;;;-1.54;0.00
23318;BME280;11831;55.918;37.746;2023-03-01T09:03:37;98667.28;;;-0.65;0.00
23318;BME280;11831;55.918;37.746;2023-03-01T09:06:04;98667.72;;;-0.76;0.00
23318;BME280;11831;55.918;37.746;2023-03-01T09:08:34;98661.53;;;-0.60;0.00
23318;BME280;11831;55.918;37.746;2023-03-01T09:11:03;98683.59;;;-1.95;0.00
23318;BME280;11831;55.918;37.746;2023-03-01T09:13:29;98665.66;;;-1.51;0.00
23318;BME280;11831;55.918;37.746;2023-03-01T09:15:58;98703.88;;;-1.89;0.00
23318;BME280;11831;55.918;37.746;2023-03-01T09:18:24;98666.69;;;-1.29;0.00
23318;BME280;11831;55.918;37.746;2023-03-01T09:20:51;98649.12;;;-1.29;0.00
23318;BME280;11831;55.918;37.746;2023-03-01T09:23:17;98664.16;;;-0.60;0.00
23318;BME280;11831;55.918;37.746;2023-03-01T09:25:43;98655.41;;;-0.53;0.00
23318;BME280;11831;55.918;37.746;2023-03-01T09:28:10;98661.47;;;-0.75;0.00
23318;BME280;11831;55.918;37.746;2023-03-01T09:30:36;98676.44;;;-0.38;0.00
23318;BME280;11831;55.918;37.746;2023-03-01T09:33:03;98641.09;;;-0.27;0.00
23318;BME280;11831;55.918;37.746;2023-03-01T09:35:30;98654.78;;;-0.55;0.00
23318;BME280;11831;55.918;37.746;2023-03-01T09:37:56;98665.84;;;-0.45;0.00
23318;BME280;11831;55.918;37.746;2023-03-01T09:40:25;98655.88;;;-0.72;0.00
23318;BME280;11831;55.918;37.746;2023-03-01T09:43:19;98667.59;;;0.30;0.00
23318;BME280;11831;55.918;37.746;2023-03-01T09:45:44;98669.41;;;0.15;0.00
23318;BME280;11831;55.918;37.746;2023-03-01T09:48:18;98646.75;;;0.28;0.00
23318;BME280;11831;55.918;37.746;2023-03-01T09:50:45;98662.09;;;0.40;0.00
23318;BME280;11831;55.918;37.746;2023-03-01T09:53:18;98673.22;;;0.71;0.00
23318;BME280;11831;55.918;37.746;2023-03-01T09:56:34;98666.78;;;1.10;0.00
23318;BME280;11831;55.918;37.746;2023-03-01T10:01:28;98653.31;;;1.19;0.00
23318;BME280;11831;55.918;37.746;2023-03-01T10:04:21;98649.19;;;1.10;0.00
23318;BME280;11831;55.918;37.746;2023-03-01T10:09:37;98677.84;;;0.54;0.00
23318;BME280;11831;55.918;37.746;2023-03-01T10:12:08;98679.59;;;-0.20;0.00
23318;BME280;11831;55.918;37.746;2023-03-01T10:14:41;98683.59;;;-0.47;0.00
23318;BME280;11831;55.918;37.746;2023-03-01T10:17:20;98683.37;;;0.01;0.00
23318;BME280;11831;55.918;37.746;2023-03-01T10:19:50;98673.59;;;0.24;0.00
23318;BME280;11831;55.918;37.746;2023-03-01T10:22:28;98673.09;;;-0.47;0.00
23318;BME280;11831;55.918;37.746;2023-03-01T10:24:58;98670.72;;;-0.19;0.00
23318;BME280;11831;55.918;37.746;2023-03-01T10:27:43;98698.00;;;-0.43;0.00
23318;BME280;11831;55.918;37.746;2023-03-01T10:30:21;98692.34;;;-1.08;0.00
23318;BME280;11831;55.918;37.746;2023-03-01T10:32:51;98686.62;;;-0.58;0.00
23318;BME280;11831;55.918;37.746;2023-03-01T10:35:25;98681.59;;;-0.22;0.00
23318;BME280;11831;55.918;37.746;2023-03-01T10:38:08;98690.13;;;-0.43;0.00
23318;BME280;11831;55.918;37.746;2023-03-01T10:40:36;98715.00;;;-1.15;0.00
23318;BME280;11831;55.918;37.746;2023-03-01T10:43:15;98688.25;;;-0.34;0.00
23318;BME280;11831;55.918;37.746;2023-03-01T10:45:42;98701.25;;;-0.64;0.00
23318;BME280;11831;55.918;37.746;2023-03-01T10:48:22;98690.56;;;-0.16;0.00
23318;BME280;11831;55.918;37.746;2023-03-01T10:53:38;98678.12;;;0.45;0.00
23318;BME280;11831;55.918;37.746;2023-03-01T10:56:09;98673.66;;;1.26;0.00
23318;BME280;11831;55.918;37.746;2023-03-01T10:58:39;98684.19;;;1.68;0.00
23318;BME280;11831;55.918;37.746;2023-03-01T11:03:41;98679.28;;;0.27;0.00
23318;BME280;11831;55.918;37.746;2023-03-01T11:08:43;98672.84;;;0.30;0.00
23318;BME280;11831;55.918;37.746;2023-03-01T11:11:32;98693.44;;;0.26;0.00
23318;BME280;11831;55.918;37.746;2023-03-01T11:14:24;98696.66;;;0.66;0.00
23318;BME280;11831;55.918;37.746;2023-03-01T11:17:05;98677.97;;;0.32;0.00
23318;BME280;11831;55.918;37.746;2023-03-01T11:19:32;98691.94;;;-0.06;0.00
23318;BME280;11831;55.918;37.746;2023-03-01T11:22:16;98671.19;;;-0.38;0.00
23318;BME280;11831;55.918;37.746;2023-03-01T11:24:50;98669.09;;;-0.43;0.00
23318;BME280;11831;55.918;37.746;2023-03-01T11:27:28;98670.66;;;-0.34;0.00
23318;BME280;11831;55.918;37.746;2023-03-01T11:30:15;98708.09;;;-0.54;0.00
23318;BME280;11831;55.918;37.746;2023-03-01T11:35:22;98688.75;;;0.51;0.00
23318;BME280;11831;55.918;37.746;2023-03-01T11:38:04;98715.59;;;-0.06;0.00
23318;BME280;11831;55.918;37.746;2023-03-01T11:40:42;98716.00;;;0.21;0.00
23318;BME280;11831;55.918;37.746;2023-03-01T11:43:22;98668.97;;;0.41;0.00
23318;BME280;11831;55.918;37.746;2023-03-01T11:49:01;98690.19;;;0.54;0.00
23318;BME280;11831;55.918;37.746;2023-03-01T11:55:04;98694.00;;;-0.16;0.00
23318;BME280;11831;55.918;37.746;2023-03-01T12:11:11;98709.31;;;-0.65;0.00
23318;BME280;11831;55.918;37.746;2023-03-01T12:14:17;98724.56;;;-0.15;0.00
23318;BME280;11831;55.918;37.746;2023-03-01T12:23:35;98708.88;;;-0.08;0.00
23318;BME280;11831;55.918;37.746;2023-03-01T12:37:39;98712.78;;;-1.35;0.00
23318;BME280;11831;55.918;37.746;2023-03-01T12:40:35;98712.50;;;0.87;0.00
23318;BME280;11831;55.918;37.746;2023-03-01T12:45:50;98720.19;;;-0.22;0.00
23318;BME280;11831;55.918;37.746;2023-03-01T12:51:07;98709.31;;;-0.65;0.00
23318;BME280;11831;55.918;37.746;2023-03-01T12:53:40;98697.47;;;-0.92;0.00
23318;BME280;11831;55.918;37.746;2023-03-01T12:56:11;98692.97;;;-0.75;0.00
23318;BME280;11831;55.918;37.746;2023-03-01T12:58:51;98710.75;;;-0.63;0.00
23318;BME280;11831;55.918;37.746;2023-03-01T13:01:33;98698.31;;;0.00;0.00
23318;BME280;11831;55.918;37.746;2023-03-01T13:12:52;98702.72;;;-0.01;0.00
23318;BME280;11831;55.918;37.746;2023-03-01T13:20:21;98723.91;;;-0.94;0.00
23318;BME280;11831;55.918;37.746;2023-03-01T13:23:00;98673.72;;;-0.90;0.00
23318;BME280;11831;55.918;37.746;2023-03-01T13:25:27;98657.16;;;-1.22;0.00
23318;BME280;11831;55.918;37.746;2023-03-01T13:30:59;98703.13;;;-1.03;0.00
23318;BME280;11831;55.918;37.746;2023-03-01T13:35:53;98714.38;;;-1.81;0.00
23318;BME280;11831;55.918;37.746;2023-03-01T13:41:07;98674.09;;;-1.96;0.00
23318;BME280;11831;55.918;37.746;2023-03-01T13:43:36;98700.00;;;-2.17;0.00
23318;BME280;11831;55.918;37.746;2023-03-01T13:46:20;98724.22;;;-2.24;0.00
23318;BME280;11831;55.918;37.746;2023-03-01T13:48:51;98699.00;;;-2.00;0.00
23318;BME280;11831;55.918;37.746;2023-03-01T13:51:25;98706.22;;;-2.19;0.00
23318;BME280;11831;55.918;37.746;2023-03-01T13:53:52;98691.09;;;-1.84;0.00
23318;BME280;11831;55.918;37.746;2023-03-01T13:56:36;98678.31;;;-1.71;0.00
23318;BME280;11831;55.918;37.746;2023-03-01T13:59:06;98685.25;;;-2.02;0.00
23318;BME280;11831;55.918;37.746;2023-03-01T14:01:39;98662.47;;;-1.94;0.00
23318;BME280;11831;55.918;37.746;2023-03-01T14:06:52;98685.66;;;-1.66;0.00
23318;BME280;11831;55.918;37.746;2023-03-01T14:09:40;98690.47;;;-1.94;0.00
23318;BME280;11831;55.918;37.746;2023-03-01T14:20:11;98662.84;;;-1.58;0.00
23318;BME280;11831;55.918;37.746;2023-03-01T14:22:41;98705.19;;;-1.77;0.00
23318;BME280;11831;55.918;37.746;2023-03-01T14:25:36;98661.31;;;-1.83;0.00
23318;BME280;11831;55.918;37.746;2023-03-01T14:28:24;98661.66;;;-1.94;0.00
23318;BME280;11831;55.918;37.746;2023-03-01T14:30:59;98662.13;;;-1.82;0.00
23318;BME280;11831;55.918;37.746;2023-03-01T14:36:06;98672.75;;;-1.84;0.00
23318;BME280;11831;55.918;37.746;2023-03-01T14:41:05;98652.72;;;-1.52;0.00
23318;BME280;11831;55.918;37.746;2023-03-01T14:43:32;98651.84;;;-1.45;0.00
23318;BME280;11831;55.918;37.746;2023-03-01T14:45:59;98652.47;;;-1.82;0.00
23318;BME280;11831;55.918;37.746;2023-03-01T14:48:27;98636.47;;;-1.48;0.00
23318;BME280;11831;55.918;37.746;2023-03-01T14:50:55;98680.34;;;-2.05;0.00
23318;BME280;11831;55.918;37.746;2023-03-01T14:53:25;98646.25;;;-1.89;0.00
23318;BME280;11831;55.918;37.746;2023-03-01T14:55:55;98646.41;;;-1.82;0.00
23318;BME280;11831;55.918;37.746;2023-03-01T14:58:24;98655.22;;;-1.75;0.00
23318;BME280;11831;55.918;37.746;2023-03-01T15:03:46;98643.16;;;-1.93;0.00